Time;durP1;ratioP1;P1;durP2;ratioP2;P2;SDS_P1;SDS_P2;PMS_P1;PMS_P2;Temp;Humidity;BMP_temperature;BMP_pressure;BME280_temperature;BME280_humidity;BME280_pressure;Samples;Min_cycle;Max_cycle;Signal;HPM_P1;HPM_P2
2021/06/29 00:00:29;;;;;;;8.23;7.47;;;20.80;99.90;;;;;;5134675;27;20562;-73
2021/06/29 00:03:01;;;;;;;7.50;6.90;;;20.70;99.90;;;;;;5134897;27;20150;-73
2021/06/29 00:05:27;;;;;;;7.57;6.97;;;20.70;99.90;;;;;;5134800;27;20398;-73
2021/06/29 00:07:53;;;;;;;7.90;7.30;;;20.70;99.90;;;;;;5134885;27;20399;-73
2021/06/29 00:10:18;;;;;;;7.70;7.10;;;20.70;99.90;;;;;;5135039;27;20390;-73
2021/06/29 00:12:44;;;;;;;7.50;7.00;;;20.70;99.90;;;;;;5134382;27;20592;-73
2021/06/29 00:15:10;;;;;;;7.20;6.60;;;20.60;99.90;;;;;;5134391;27;20216;-73
2021/06/29 00:17:36;;;;;;;8.13;7.53;;;20.70;99.90;;;;;;5134567;27;20237;-73
2021/06/29 00:20:04;;;;;;;8.37;7.67;;;20.60;99.90;;;;;;5134715;27;20406;-73
2021/06/29 00:22:29;;;;;;;8.00;7.40;;;20.60;99.90;;;;;;5134461;27;20480;-73
2021/06/29 00:24:55;;;;;;;7.80;7.20;;;20.60;99.90;;;;;;5134897;27;20482;-73
2021/06/29 00:27:20;;;;;;;8.50;7.80;;;20.60;99.90;;;;;;5134302;27;20165;-73
2021/06/29 00:29:46;;;;;;;7.77;7.07;;;20.60;99.90;;;;;;5134479;27;20215;-73
2021/06/29 00:32:11;;;;;;;8.73;7.93;;;20.60;99.90;;;;;;5134219;27;20574;-73
2021/06/29 00:34:37;;;;;;;8.73;7.83;;;20.60;99.90;;;;;;5134195;27;20268;-73
2021/06/29 00:37:02;;;;;;;8.30;7.60;;;20.60;99.90;;;;;;5134412;27;20642;-73
2021/06/29 00:39:28;;;;;;;8.50;7.80;;;20.60;99.90;;;;;;5133441;27;20146;-73
2021/06/29 00:41:53;;;;;;;8.43;7.73;;;20.50;99.90;;;;;;5133743;27;20221;-73
2021/06/29 00:44:22;;;;;;;9.27;8.37;;;20.50;99.90;;;;;;5134028;27;20146;-73
2021/06/29 00:46:48;;;;;;;8.30;7.60;;;20.50;99.90;;;;;;5133736;27;20252;-73
2021/06/29 00:49:14;;;;;;;8.20;7.40;;;20.50;99.90;;;;;;5134554;27;20391;-73
2021/06/29 00:51:40;;;;;;;7.23;6.73;;;20.50;99.90;;;;;;5133976;27;20790;-73
2021/06/29 00:54:05;;;;;;;8.83;8.10;;;20.40;99.90;;;;;;5133818;27;20462;-73
2021/06/29 00:56:32;;;;;;;8.30;7.60;;;20.40;99.90;;;;;;5133535;27;20240;-73
2021/06/29 00:58:57;;;;;;;8.00;7.33;;;20.40;99.90;;;;;;5133443;27;20189;-73
2021/06/29 01:01:23;;;;;;;7.60;7.00;;;20.40;99.90;;;;;;5133542;27;20387;-73
2021/06/29 01:03:48;;;;;;;8.47;7.77;;;20.40;99.90;;;;;;5133689;27;20209;-73
2021/06/29 01:06:15;;;;;;;8.97;8.17;;;20.40;99.90;;;;;;5133766;27;20170;-73
2021/06/29 01:08:41;;;;;;;7.40;6.80;;;20.40;99.90;;;;;;5133684;27;20503;-73
2021/06/29 01:11:07;;;;;;;8.57;7.87;;;20.40;99.90;;;;;;5133498;27;20391;-73
2021/06/29 01:13:39;;;;;;;8.90;6.90;;;20.40;99.90;;;;;;5133361;27;20392;-73
2021/06/29 01:16:06;;;;;;;8.03;7.43;;;20.40;99.90;;;;;;5133248;27;20443;-73
2021/06/29 01:18:33;;;;;;;8.40;7.73;;;20.40;99.90;;;;;;5133539;27;20417;-73
2021/06/29 01:20:58;;;;;;;8.80;8.00;;;20.40;99.90;;;;;;5133345;27;20403;-73
2021/06/29 01:23:27;;;;;;;7.73;7.13;;;20.30;99.90;;;;;;5133575;27;20479;-73
2021/06/29 01:26:14;;;;;;;8.40;7.60;;;20.40;99.90;;;;;;5133345;27;20185;-73
2021/06/29 01:28:52;;;;;;;8.93;8.03;;;20.40;99.90;;;;;;5133214;27;20826;-73
2021/06/29 01:31:19;;;;;;;7.93;7.30;;;20.40;99.90;;;;;;5133252;27;20387;-73
2021/06/29 01:33:45;;;;;;;7.40;6.70;;;20.40;99.90;;;;;;5133104;27;20395;-73
2021/06/29 01:36:13;;;;;;;7.80;7.13;;;20.40;99.90;;;;;;5133266;27;20384;-73
2021/06/29 01:38:39;;;;;;;7.87;7.10;;;20.40;99.90;;;;;;5133102;27;20176;-73
2021/06/29 01:41:06;;;;;;;7.33;6.63;;;20.40;99.90;;;;;;5133199;27;20384;-73
2021/06/29 01:43:36;;;;;;;6.70;6.10;;;20.40;99.90;;;;;;5133052;27;20602;-73
2021/06/29 01:46:01;;;;;;;6.80;6.20;;;20.30;99.90;;;;;;5132945;27;20490;-73
2021/06/29 01:48:27;;;;;;;7.83;6.97;;;20.30;99.90;;;;;;5133090;27;20475;-73
2021/06/29 01:50:55;;;;;;;7.27;6.77;;;20.20;99.90;;;;;;5133049;27;20146;-73
2021/06/29 01:53:21;;;;;;;7.90;7.30;;;20.30;99.90;;;;;;5132673;27;20252;-73
2021/06/29 01:55:47;;;;;;;9.60;7.67;;;20.20;99.90;;;;;;5132807;28;20931;-73
2021/06/29 01:58:18;;;;;;;7.37;6.67;;;20.20;99.90;;;;;;5132866;28;20415;-73
2021/06/29 02:00:44;;;;;;;6.90;6.37;;;20.20;99.90;;;;;;5132899;28;20387;-73
2021/06/29 02:03:09;;;;;;;7.83;7.13;;;20.20;99.90;;;;;;5132874;28;20442;-73
2021/06/29 02:05:35;;;;;;;7.77;7.17;;;20.10;99.90;;;;;;5132900;28;20215;-73
2021/06/29 02:08:00;;;;;;;7.37;6.67;;;20.20;99.90;;;;;;5132796;28;20257;-73
2021/06/29 02:10:26;;;;;;;7.60;6.90;;;20.20;99.90;;;;;;5132668;28;20157;-73
2021/06/29 02:12:52;;;;;;;9.43;8.53;;;20.20;99.90;;;;;;5132603;28;20181;-73
2021/06/29 02:15:20;;;;;;;10.13;9.23;;;20.20;99.90;;;;;;5132677;28;20203;-73
2021/06/29 02:17:45;;;;;;;12.17;10.10;;;20.20;99.90;;;;;;5132653;28;20387;-73
2021/06/29 02:20:12;;;;;;;11.83;10.03;;;20.20;99.90;;;;;;5133013;28;20399;-73
2021/06/29 02:22:37;;;;;;;12.40;11.17;;;20.30;99.90;;;;;;5132626;28;20149;-73
2021/06/29 02:25:03;;;;;;;11.77;10.60;;;20.20;99.90;;;;;;5132706;28;20405;-73
2021/06/29 02:27:29;;;;;;;14.43;13.30;;;20.30;99.90;;;;;;5132530;28;20173;-73
2021/06/29 02:29:56;;;;;;;13.07;11.87;;;20.30;99.90;;;;;;5132347;28;20402;-73
2021/06/29 02:32:22;;;;;;;14.27;12.83;;;20.30;99.90;;;;;;5132832;28;20165;-73
2021/06/29 02:34:48;;;;;;;13.70;12.33;;;20.20;99.90;;;;;;5132674;28;20438;-73
2021/06/29 02:37:14;;;;;;;14.93;13.53;;;20.20;99.90;;;;;;5132773;28;20762;-73
2021/06/29 02:39:39;;;;;;;14.30;12.83;;;20.20;99.90;;;;;;5132570;28;20161;-73
2021/06/29 02:42:06;;;;;;;13.90;12.50;;;20.20;99.90;;;;;;5132604;28;20184;-73
2021/06/29 02:44:33;;;;;;;13.70;12.60;;;20.10;99.90;;;;;;5132564;28;20182;-73
2021/06/29 02:46:59;;;;;;;13.17;11.93;;;20.10;99.90;;;;;;5132402;28;20475;-73
2021/06/29 02:49:24;;;;;;;11.47;10.57;;;20.10;99.90;;;;;;5132538;28;20391;-73
2021/06/29 02:51:50;;;;;;;11.53;10.40;;;20.10;99.90;;;;;;5132180;28;20260;-73
2021/06/29 02:54:15;;;;;;;12.63;11.43;;;20.00;99.90;;;;;;5132158;28;20201;-73
2021/06/29 02:56:41;;;;;;;12.70;11.43;;;20.00;99.90;;;;;;5132690;28;20173;-73
2021/06/29 02:59:10;;;;;;;12.40;11.30;;;20.00;99.90;;;;;;5132328;28;20208;-73
2021/06/29 03:01:36;;;;;;;12.43;11.33;;;19.90;99.90;;;;;;5133833;27;20625;-70
2021/06/29 03:04:01;;;;;;;12.30;11.10;;;19.90;99.90;;;;;;5135923;27;20490;-70
2021/06/29 03:06:27;;;;;;;12.30;11.10;;;19.90;99.90;;;;;;5135940;27;20472;-70
2021/06/29 03:08:53;;;;;;;11.77;10.77;;;19.90;99.90;;;;;;5136183;27;20160;-70
2021/06/29 03:11:18;;;;;;;10.07;9.13;;;19.90;99.90;;;;;;5135943;27;20660;-70
2021/06/29 03:13:44;;;;;;;11.73;10.63;;;19.90;99.90;;;;;;5135801;27;20163;-70
2021/06/29 03:16:11;;;;;;;12.33;11.13;;;19.90;99.90;;;;;;5135499;27;20188;-71
2021/06/29 03:18:37;;;;;;;13.13;11.83;;;19.90;99.90;;;;;;5136010;27;20153;-71
2021/06/29 03:21:03;;;;;;;12.30;11.30;;;19.90;99.90;;;;;;5135602;27;20410;-70
2021/06/29 03:23:28;;;;;;;11.77;10.77;;;19.90;99.90;;;;;;5135714;27;20419;-70
2021/06/29 03:25:54;;;;;;;12.53;11.47;;;19.90;99.90;;;;;;5135527;27;20446;-70
2021/06/29 03:28:20;;;;;;;12.03;11.10;;;19.90;99.90;;;;;;5135454;27;20677;-71
2021/06/29 03:30:45;;;;;;;11.23;10.30;;;19.90;99.90;;;;;;5135580;27;20161;-70
2021/06/29 03:33:11;;;;;;;13.60;12.40;;;19.80;99.90;;;;;;5135701;27;20149;-70
2021/06/29 03:35:36;;;;;;;12.53;11.57;;;19.80;99.90;;;;;;5135344;27;20182;-70
2021/06/29 03:38:02;;;;;;;17.67;13.40;;;19.90;99.90;;;;;;5135314;27;20507;-70
2021/06/29 03:40:28;;;;;;;13.57;12.47;;;19.90;99.90;;;;;;5135673;27;20154;-71
2021/06/29 03:42:54;;;;;;;13.10;12.00;;;19.90;99.90;;;;;;5135370;27;20400;-70
2021/06/29 03:45:19;;;;;;;13.83;11.23;;;19.90;99.90;;;;;;5135321;27;20629;-70
2021/06/29 03:47:45;;;;;;;10.93;10.03;;;19.90;99.90;;;;;;5135160;27;20168;-71
2021/06/29 03:50:11;;;;;;;10.73;9.83;;;19.90;99.90;;;;;;5135229;27;20189;-70
2021/06/29 03:52:37;;;;;;;12.17;9.40;;;19.90;99.90;;;;;;5135180;27;20557;-70
2021/06/29 03:55:05;;;;;;;10.27;9.47;;;19.90;99.90;;;;;;5134801;27;20208;-70
2021/06/29 03:57:31;;;;;;;10.57;9.47;;;19.90;99.90;;;;;;5134939;27;20387;-71
2021/06/29 03:59:56;;;;;;;9.73;8.93;;;19.90;99.90;;;;;;5135195;27;20423;-70
2021/06/29 04:02:22;;;;;;;8.80;7.90;;;19.90;99.90;;;;;;5135083;27;20397;-71
2021/06/29 04:04:48;;;;;;;9.37;8.50;;;19.90;99.90;;;;;;5134853;27;20157;-71
2021/06/29 04:07:14;;;;;;;12.20;10.33;;;19.90;99.90;;;;;;5134992;27;20421;-70
2021/06/29 04:09:39;;;;;;;8.70;7.80;;;19.80;99.90;;;;;;5134768;27;20213;-71
2021/06/29 04:12:07;;;;;;;10.50;7.87;;;19.80;99.90;;;;;;5134629;27;20578;-70
2021/06/29 04:14:33;;;;;;;9.07;8.20;;;19.80;99.90;;;;;;5134618;27;20561;-71
2021/06/29 04:16:58;;;;;;;10.07;9.07;;;19.80;99.90;;;;;;5135276;27;20402;-71
2021/06/29 04:19:25;;;;;;;8.90;8.10;;;19.80;99.90;;;;;;5134719;27;20154;-70
2021/06/29 04:21:51;;;;;;;7.77;6.97;;;19.80;99.90;;;;;;5134559;27;20154;-70
2021/06/29 04:24:17;;;;;;;8.30;7.60;;;19.80;99.90;;;;;;5134533;27;20391;-70
2021/06/29 04:26:42;;;;;;;7.83;7.13;;;19.90;99.90;;;;;;5134463;27;20154;-70
2021/06/29 04:29:08;;;;;;;9.20;8.40;;;19.90;99.90;;;;;;5134348;27;20260;-70
2021/06/29 04:31:33;;;;;;;7.67;7.03;;;19.80;99.90;;;;;;5134617;27;20158;-71
2021/06/29 04:33:59;;;;;;;8.30;7.50;;;19.90;99.90;;;;;;5133349;27;20253;-70
2021/06/29 04:36:25;;;;;;;8.27;7.47;;;19.80;99.90;;;;;;5131549;27;20200;-70
2021/06/29 04:38:51;;;;;;;7.70;7.00;;;19.80;99.90;;;;;;5130693;27;20230;-70
2021/06/29 04:41:16;;;;;;;8.87;7.60;;;19.80;99.90;;;;;;5134179;27;20166;-70
2021/06/29 04:43:44;;;;;;;8.50;7.77;;;19.90;99.90;;;;;;5134494;27;20173;-70
2021/06/29 04:46:10;;;;;;;9.87;8.70;;;19.90;99.90;;;;;;5133434;27;20181;-70
2021/06/29 04:48:38;;;;;;;10.43;9.53;;;20.00;99.90;;;;;;5133702;27;20390;-70
2021/06/29 04:51:05;;;;;;;9.10;8.30;;;20.10;99.90;;;;;;5133299;27;20395;-70
2021/06/29 04:53:31;;;;;;;9.67;8.93;;;20.10;99.90;;;;;;5132744;27;20410;-70
2021/06/29 04:55:56;;;;;;;10.40;9.50;;;20.20;99.90;;;;;;5132817;27;20811;-70
2021/06/29 04:58:22;;;;;;;10.33;9.40;;;20.20;99.90;;;;;;5133251;27;20446;-71
2021/06/29 05:00:49;;;;;;;10.27;9.37;;;20.20;99.90;;;;;;5134212;27;20177;-70
2021/06/29 05:03:15;;;;;;;12.47;11.47;;;20.20;99.90;;;;;;5133633;27;20537;-70
2021/06/29 05:05:41;;;;;;;13.37;12.33;;;20.20;99.90;;;;;;5133489;27;20435;-70
2021/06/29 05:08:07;;;;;;;12.70;11.60;;;20.20;99.90;;;;;;5133517;27;20538;-71
2021/06/29 05:10:33;;;;;;;13.43;12.27;;;20.20;99.90;;;;;;5133739;27;20259;-70
2021/06/29 05:12:59;;;;;;;14.77;13.37;;;20.20;99.90;;;;;;5134077;27;20814;-70
2021/06/29 05:15:24;;;;;;;14.40;13.20;;;20.30;99.90;;;;;;5134126;27;20527;-70
2021/06/29 05:17:50;;;;;;;13.57;12.47;;;20.30;99.90;;;;;;5133293;27;20177;-70
2021/06/29 05:20:16;;;;;;;13.57;12.37;;;20.40;99.90;;;;;;5133023;27;20165;-70
2021/06/29 05:22:41;;;;;;;12.63;11.30;;;20.40;99.90;;;;;;5132002;27;20167;-70
2021/06/29 05:25:08;;;;;;;13.40;12.30;;;20.50;99.90;;;;;;5132907;27;20165;-70
2021/06/29 05:27:37;;;;;;;12.97;11.83;;;20.60;99.90;;;;;;5132416;27;20173;-70
2021/06/29 05:30:04;;;;;;;12.87;11.77;;;20.70;99.90;;;;;;5128166;27;20787;-70
2021/06/29 05:32:30;;;;;;;13.60;12.40;;;20.80;99.90;;;;;;5131082;27;20435;-70
2021/06/29 05:34:55;;;;;;;12.37;11.37;;;20.90;99.90;;;;;;5123439;27;20530;-70
2021/06/29 05:37:21;;;;;;;12.60;11.50;;;21.00;99.90;;;;;;5131062;27;20172;-70
2021/06/29 05:39:46;;;;;;;11.80;10.77;;;21.10;99.90;;;;;;5133680;27;20165;-70
2021/06/29 05:42:12;;;;;;;12.70;11.60;;;21.00;99.90;;;;;;5133056;27;20656;-70
2021/06/29 05:44:37;;;;;;;12.30;11.00;;;21.00;99.90;;;;;;5133037;27;20521;-70
2021/06/29 05:47:06;;;;;;;12.20;11.20;;;21.10;99.90;;;;;;5133469;27;20165;-70
2021/06/29 05:49:32;;;;;;;12.57;11.57;;;21.00;99.90;;;;;;5132716;27;20176;-70
2021/06/29 05:51:58;;;;;;;12.53;11.40;;;21.00;99.90;;;;;;5133176;27;20395;-70
2021/06/29 05:54:23;;;;;;;12.43;11.27;;;21.00;99.90;;;;;;5131698;27;20458;-70
2021/06/29 05:56:49;;;;;;;11.03;10.13;;;21.00;99.90;;;;;;5132685;27;20169;-70
2021/06/29 05:59:15;;;;;;;11.87;11.00;;;21.10;99.90;;;;;;5132558;28;20327;-70
2021/06/29 06:01:40;;;;;;;12.33;11.03;;;21.10;99.90;;;;;;5131744;28;20169;-70
2021/06/29 06:04:06;;;;;;;11.70;10.60;;;21.10;99.90;;;;;;5132220;28;20188;-70
2021/06/29 06:06:31;;;;;;;12.13;11.23;;;21.10;99.90;;;;;;5133109;28;20177;-70
2021/06/29 06:08:57;;;;;;;11.27;10.17;;;21.10;99.90;;;;;;5131173;28;20188;-70
2021/06/29 06:11:23;;;;;;;14.70;13.40;;;21.20;99.90;;;;;;5131429;27;20577;-71
2021/06/29 06:13:48;;;;;;;16.57;15.27;;;21.30;99.90;;;;;;5133045;28;20547;-70
2021/06/29 06:16:14;;;;;;;17.60;16.20;;;21.30;99.90;;;;;;5131924;28;20193;-70
2021/06/29 06:18:42;;;;;;;18.97;17.37;;;21.30;99.90;;;;;;5132046;28;20630;-70
2021/06/29 06:21:08;;;;;;;16.93;15.33;;;21.30;99.90;;;;;;5112887;28;20162;-70
2021/06/29 06:23:33;;;;;;;19.00;17.20;;;21.30;99.90;;;;;;5124280;28;20745;-70
2021/06/29 06:25:59;;;;;;;16.10;14.50;;;21.30;99.90;;;;;;5127163;28;20630;-71
2021/06/29 06:28:24;;;;;;;15.30;14.00;;;21.30;99.90;;;;;;5128012;28;20532;-71
2021/06/29 06:30:50;;;;;;;16.17;14.77;;;21.30;99.90;;;;;;5129922;28;20690;-70
2021/06/29 06:33:16;;;;;;;14.40;13.20;;;21.30;99.90;;;;;;5126540;27;20197;-71
2021/06/29 06:35:42;;;;;;;12.47;11.40;;;21.20;99.90;;;;;;5131906;27;20458;-71
2021/06/29 06:38:07;;;;;;;10.57;9.57;;;21.20;99.90;;;;;;5136019;27;20166;-71
2021/06/29 06:40:33;;;;;;;10.97;10.07;;;21.20;99.90;;;;;;5132904;27;20173;-71
2021/06/29 06:42:58;;;;;;;11.47;10.30;;;21.20;99.90;;;;;;5136336;27;20677;-71
2021/06/29 06:45:24;;;;;;;11.40;10.23;;;21.20;99.90;;;;;;5136106;27;20246;-71
2021/06/29 06:47:54;;;;;;;10.50;9.57;;;21.30;99.90;;;;;;5133751;27;20177;-71
2021/06/29 06:50:21;;;;;;;10.10;9.20;;;21.30;99.90;;;;;;5133467;27;20223;-72
2021/06/29 06:52:47;;;;;;;10.57;9.47;;;21.30;99.90;;;;;;5136003;27;20402;-72
2021/06/29 06:55:12;;;;;;;10.30;9.30;;;21.30;99.90;;;;;;5138766;27;20515;-71
2021/06/29 06:57:39;;;;;;;10.43;9.20;;;21.40;99.90;;;;;;5134097;27;20184;-71
2021/06/29 07:00:06;;;;;;;9.50;8.60;;;21.40;99.90;;;;;;5131806;27;20201;-72
2021/06/29 07:02:31;;;;;;;10.70;8.63;;;21.50;99.90;;;;;;5132565;27;20430;-72
2021/06/29 07:04:57;;;;;;;10.00;8.73;;;21.70;99.90;;;;;;5127444;27;20433;-71
2021/06/29 07:07:22;;;;;;;9.53;7.67;;;21.80;99.90;;;;;;5132690;27;20541;-71
2021/06/29 07:09:48;;;;;;;9.13;8.33;;;21.90;99.90;;;;;;5130908;27;20176;-71
2021/06/29 07:12:13;;;;;;;8.50;7.70;;;22.10;99.90;;;;;;5128998;27;20264;-71
2021/06/29 07:14:39;;;;;;;8.00;7.17;;;22.20;99.90;;;;;;5130535;27;20240;-72
2021/06/29 07:17:05;;;;;;;8.73;8.03;;;22.20;99.90;;;;;;5131935;27;20535;-72
2021/06/29 07:19:31;;;;;;;8.30;7.50;;;22.30;99.90;;;;;;5133508;27;20168;-72
2021/06/29 07:21:56;;;;;;;7.33;6.73;;;22.40;99.90;;;;;;5129257;27;20170;-71
2021/06/29 07:24:22;;;;;;;8.27;7.50;;;22.40;99.90;;;;;;5138807;27;20182;-71
2021/06/29 07:26:48;;;;;;;8.97;8.17;;;22.40;99.90;;;;;;5134565;27;20173;-71
2021/06/29 07:29:13;;;;;;;7.47;6.83;;;22.40;99.90;;;;;;5139313;27;20218;-71
2021/06/29 07:31:40;;;;;;;7.47;6.63;;;22.40;99.90;;;;;;5123757;27;20618;-71
2021/06/29 07:34:05;;;;;;;8.00;7.20;;;22.40;99.90;;;;;;5129043;27;20180;-71
2021/06/29 07:36:31;;;;;;;8.20;7.40;;;22.40;99.90;;;;;;5130002;27;20927;-71
2021/06/29 07:38:57;;;;;;;6.27;5.73;;;22.40;99.90;;;;;;5134749;27;20657;-70
2021/06/29 07:41:24;;;;;;;5.03;4.63;;;22.30;99.90;;;;;;5132534;27;20422;-71
2021/06/29 07:43:49;;;;;;;6.10;5.60;;;22.20;99.90;;;;;;5131917;27;20292;-70
2021/06/29 07:46:15;;;;;;;5.70;5.20;;;22.10;99.90;;;;;;5134289;27;20498;-71
2021/06/29 07:48:41;;;;;;;5.50;3.97;;;22.00;99.90;;;;;;5138456;27;22165;-71
2021/06/29 07:51:08;;;;;;;4.87;4.47;;;22.00;99.90;;;;;;5136319;27;20468;-71
2021/06/29 07:53:35;;;;;;;3.97;3.63;;;21.90;99.90;;;;;;5126820;27;20165;-71
2021/06/29 07:56:00;;;;;;;4.07;3.20;;;21.90;99.90;;;;;;5130550;27;20810;-71
2021/06/29 07:58:27;;;;;;;4.60;3.30;;;22.00;99.90;;;;;;5123302;27;20403;-71
2021/06/29 08:00:53;;;;;;;4.20;3.63;;;22.00;99.90;;;;;;5134711;27;20216;-71
2021/06/29 08:03:21;;;;;;;3.77;3.47;;;22.10;99.90;;;;;;5146398;27;20450;-71
2021/06/29 08:05:46;;;;;;;6.63;4.40;;;22.20;99.90;;;;;;5135732;27;20260;-71
2021/06/29 08:08:12;;;;;;;3.60;3.30;;;22.20;99.90;;;;;;5129396;27;20788;-71
2021/06/29 08:10:38;;;;;;;4.43;3.50;;;22.40;99.90;;;;;;5132520;27;20234;-71
2021/06/29 08:13:05;;;;;;;4.50;3.40;;;22.50;99.90;;;;;;5132822;27;20177;-71
2021/06/29 08:15:31;;;;;;;4.53;3.57;;;22.60;99.90;;;;;;5134553;27;20201;-71
2021/06/29 08:17:56;;;;;;;7.03;4.00;;;22.80;99.90;;;;;;5134060;27;20422;-71
2021/06/29 08:20:22;;;;;;;5.20;4.70;;;23.00;99.90;;;;;;5134260;27;20415;-72
2021/06/29 08:22:51;;;;;;;6.67;4.40;;;23.20;99.90;;;;;;5134835;27;20583;-72
2021/06/29 08:25:17;;;;;;;5.27;3.83;;;23.40;99.90;;;;;;5129446;27;20177;-71
2021/06/29 08:27:42;;;;;;;10.73;4.43;;;23.60;99.90;;;;;;5132780;27;20433;-71
2021/06/29 08:30:10;;;;;;;3.67;3.37;;;23.80;99.90;;;;;;5133674;27;20165;-71
2021/06/29 08:32:37;;;;;;;6.10;4.70;;;24.00;99.90;;;;;;5133751;27;21134;-72
2021/06/29 08:35:06;;;;;;;4.43;4.03;;;24.20;99.90;;;;;;5131756;27;20842;-72
2021/06/29 08:37:31;;;;;;;3.90;3.60;;;24.30;99.90;;;;;;5127757;27;20411;-72
2021/06/29 08:39:57;;;;;;;7.37;4.50;;;24.60;99.90;;;;;;5130475;27;20407;-72
2021/06/29 08:42:23;;;;;;;4.60;3.93;;;24.90;99.90;;;;;;5131176;27;20158;-72
2021/06/29 08:44:49;;;;;;;5.97;4.73;;;25.20;99.90;;;;;;5145374;27;20172;-72
2021/06/29 08:47:15;;;;;;;5.17;4.67;;;25.30;99.90;;;;;;5139675;27;20194;-72
2021/06/29 08:49:40;;;;;;;6.83;5.13;;;25.50;99.90;;;;;;5130037;27;20415;-72
2021/06/29 08:52:08;;;;;;;5.83;3.97;;;25.70;99.90;;;;;;5135637;27;20165;-72
2021/06/29 08:54:34;;;;;;;4.27;3.87;;;25.80;99.90;;;;;;5132728;27;20246;-71
2021/06/29 08:57:02;;;;;;;5.93;5.23;;;25.80;99.90;;;;;;5133946;27;20463;-71
2021/06/29 08:59:28;;;;;;;5.77;5.27;;;26.10;99.90;;;;;;5132173;27;20462;-71
2021/06/29 09:01:54;;;;;;;5.20;4.70;;;26.60;99.90;;;;;;5121864;27;20780;-71
2021/06/29 09:10:03;;;;;;;8.80;5.33;;;29.20;99.90;;;;;;5110173;27;20538;-71
2021/06/29 09:12:50;;;;;;;4.63;4.23;;;29.80;97.70;;;;;;5109287;28;20839;-71
2021/06/29 09:18:19;;;;;;;6.23;4.77;;;30.40;95.70;;;;;;5054779;28;20540;-71
2021/06/29 09:20:51;;;;;;;7.23;4.90;;;31.10;92.40;;;;;;5029665;28;20442;-71
2021/06/29 09:26:02;;;;;;;5.90;5.30;;;31.10;91.50;;;;;;5064608;28;20669;-71
2021/06/29 09:28:31;;;;;;;7.60;4.87;;;31.10;90.70;;;;;;5063960;28;20812;-71
2021/06/29 09:33:37;;;;;;;5.63;4.97;;;30.90;90.10;;;;;;5065436;28;20521;-71
2021/06/29 09:36:06;;;;;;;4.47;4.07;;;30.70;90.60;;;;;;5048281;28;20407;-71
2021/06/29 09:38:36;;;;;;;5.50;4.70;;;30.80;90.90;;;;;;5048790;28;20415;-71
2021/06/29 09:43:41;;;;;;;6.67;5.47;;;30.80;89.90;;;;;;5056341;28;21117;-71
2021/06/29 09:46:09;;;;;;;5.40;5.00;;;30.10;90.70;;;;;;5035412;28;20434;-71
2021/06/29 09:48:46;;;;;;;6.17;5.57;;;29.90;91.30;;;;;;5059575;28;20942;-71
2021/06/29 09:51:23;;;;;;;6.60;6.00;;;29.90;92.10;;;;;;5060328;28;20458;-71
2021/06/29 09:53:52;;;;;;;7.53;6.73;;;29.90;91.60;;;;;;5049533;28;20689;-71
2021/06/29 09:58:59;;;;;;;7.33;6.60;;;29.40;91.60;;;;;;5044813;28;21064;-71
2021/06/29 10:01:28;;;;;;;9.10;6.93;;;29.10;92.40;;;;;;5029725;28;20418;-71
2021/06/29 10:03:56;;;;;;;9.40;6.93;;;28.80;93.00;;;;;;5045984;28;20493;-71
2021/06/29 10:06:27;;;;;;;6.83;6.10;;;28.60;93.70;;;;;;5049432;28;20392;-71
2021/06/29 10:09:00;;;;;;;13.00;9.87;;;28.50;94.00;;;;;;5030192;28;20454;-71
2021/06/29 10:11:28;;;;;;;7.87;7.07;;;28.30;94.10;;;;;;5029800;28;20908;-72
2021/06/29 10:13:56;;;;;;;9.73;6.30;;;28.10;94.60;;;;;;5029352;28;20392;-71
2021/06/29 10:16:25;;;;;;;8.60;7.90;;;27.90;95.50;;;;;;5029572;28;20439;-71
2021/06/29 10:21:32;;;;;;;8.57;7.77;;;27.80;96.50;;;;;;5059548;28;20529;-72
2021/06/29 10:24:01;;;;;;;9.20;8.37;;;27.80;96.10;;;;;;5049406;28;20402;-72
2021/06/29 10:26:29;;;;;;;10.53;7.87;;;27.80;95.20;;;;;;5045269;28;20946;-72
2021/06/29 10:28:55;;;;;;;9.63;8.63;;;27.90;95.80;;;;;;5049683;28;20418;-72
2021/06/29 10:31:24;;;;;;;10.50;8.90;;;28.00;95.40;;;;;;5049702;28;20405;-72
2021/06/29 10:33:52;;;;;;;8.90;8.10;;;27.90;96.50;;;;;;5049216;28;20744;-72
2021/06/29 10:36:19;;;;;;;12.33;9.10;;;28.10;96.10;;;;;;5041902;28;20469;-72
2021/06/29 10:38:44;;;;;;;12.83;9.43;;;28.20;96.00;;;;;;5047030;28;20427;-72
2021/06/29 10:41:11;;;;;;;8.03;6.87;;;28.30;95.90;;;;;;5031140;28;20440;-72
2021/06/29 10:43:38;;;;;;;10.40;7.33;;;28.30;94.80;;;;;;5031098;28;20200;-72
2021/06/29 10:46:04;;;;;;;10.13;7.57;;;28.30;96.30;;;;;;5043624;28;20423;-72
2021/06/29 10:48:31;;;;;;;7.30;6.60;;;28.20;95.40;;;;;;5048285;28;20415;-72
2021/06/29 10:50:58;;;;;;;7.10;6.50;;;28.20;96.90;;;;;;5040919;28;20419;-72
2021/06/29 10:56:16;;;;;;;10.60;9.50;;;28.00;96.60;;;;;;5084668;28;21172;-71
2021/06/29 10:58:45;;;;;;;9.43;8.50;;;27.80;97.00;;;;;;5060277;28;20459;-71
2021/06/29 11:01:33;;;;;;;10.73;8.80;;;27.60;96.50;;;;;;5059028;28;20426;-71
2021/06/29 11:04:01;;;;;;;8.87;8.00;;;27.40;97.00;;;;;;5054275;28;20451;-71
2021/06/29 11:06:46;;;;;;;7.07;6.50;;;27.20;97.80;;;;;;5051099;28;20881;-71
2021/06/29 11:09:17;;;;;;;7.10;6.40;;;27.10;98.80;;;;;;5054663;28;20798;-71
2021/06/29 11:12:20;;;;;;;7.57;6.77;;;27.00;98.70;;;;;;5069069;28;20387;-71
2021/06/29 11:14:48;;;;;;;8.27;7.37;;;26.80;98.00;;;;;;5057143;28;20472;-71
2021/06/29 11:17:14;;;;;;;9.67;8.77;;;26.60;97.70;;;;;;5053311;28;20459;-71
2021/06/29 11:23:02;;;;;;;8.00;7.30;;;26.30;97.40;;;;;;5064271;28;20961;-72
2021/06/29 11:39:24;;;;;;;9.40;8.40;;;26.20;98.50;;;;;;5109130;27;20516;-71
2021/06/29 11:41:53;;;;;;;9.93;8.80;;;26.50;98.40;;;;;;5093511;28;20428;-71
2021/06/29 11:52:29;;;;;;;9.83;9.03;;;26.60;97.30;;;;;;5073436;27;20543;-70
2021/06/29 12:03:08;;;;;;;8.30;7.50;;;26.70;97.90;;;;;;5065998;28;21123;-72
2021/06/29 12:05:36;;;;;;;9.93;9.03;;;26.50;98.20;;;;;;5050653;28;20406;-72
2021/06/29 12:08:06;;;;;;;7.77;7.07;;;26.40;98.10;;;;;;5048779;28;20403;-72
2021/06/29 12:13:11;;;;;;;7.20;6.60;;;26.40;98.40;;;;;;5148766;27;20948;-71
2021/06/29 12:15:43;;;;;;;7.17;6.57;;;26.30;99.50;;;;;;5134538;27;20811;-71
2021/06/29 12:18:12;;;;;;;8.50;7.80;;;26.40;98.20;;;;;;5124015;28;20419;-71
2021/06/29 12:23:19;;;;;;;9.47;8.40;;;26.30;98.10;;;;;;5069516;28;20512;-71
2021/06/29 12:25:47;;;;;;;6.07;5.40;;;26.30;97.90;;;;;;5049813;28;20398;-72
2021/06/29 12:28:17;;;;;;;6.73;6.13;;;26.30;99.90;;;;;;5047909;28;21005;-71
2021/06/29 12:30:46;;;;;;;6.83;6.23;;;26.40;99.90;;;;;;5047708;28;20418;-72
2021/06/29 12:33:22;;;;;;;9.70;8.80;;;26.40;99.10;;;;;;5048588;28;20419;-72
2021/06/29 12:35:55;;;;;;;8.40;7.60;;;26.50;98.60;;;;;;5048749;28;20418;-72
2021/06/29 12:38:23;;;;;;;7.90;7.13;;;26.40;98.70;;;;;;5049253;28;20521;-71
2021/06/29 12:40:54;;;;;;;6.70;6.10;;;26.30;99.10;;;;;;5048670;28;20711;-72
2021/06/29 12:43:31;;;;;;;6.60;6.03;;;26.20;97.40;;;;;;5049028;28;20462;-72
2021/06/29 12:45:58;;;;;;;7.67;6.93;;;26.10;98.70;;;;;;5048403;28;20811;-72
2021/06/29 12:48:23;;;;;;;10.30;7.40;;;26.00;99.70;;;;;;5047653;28;20430;-72
2021/06/29 12:51:01;;;;;;;7.43;6.80;;;25.90;99.80;;;;;;5048622;28;20902;-71
2021/06/29 12:53:27;;;;;;;8.43;7.73;;;25.80;99.90;;;;;;5047255;28;20211;-72
2021/06/29 12:56:03;;;;;;;9.23;8.30;;;25.70;98.50;;;;;;5049353;28;20465;-72
2021/06/29 12:58:29;;;;;;;7.67;6.97;;;25.60;98.50;;;;;;5044098;28;20287;-71
2021/06/29 13:00:55;;;;;;;9.37;8.47;;;25.40;99.70;;;;;;5046350;28;20586;-72
2021/06/29 13:03:23;;;;;;;9.60;8.70;;;25.40;98.30;;;;;;5035886;28;20547;-72
2021/06/29 13:05:48;;;;;;;10.30;9.30;;;25.40;99.30;;;;;;5042535;28;20176;-72
2021/06/29 13:08:17;;;;;;;9.27;8.20;;;25.40;99.90;;;;;;5036809;28;20411;-72
2021/06/29 13:10:44;;;;;;;11.83;10.73;;;25.40;99.90;;;;;;5033935;28;20662;-72
2021/06/29 13:15:54;;;;;;;10.33;9.43;;;25.50;99.90;;;;;;5063733;28;20650;-72
2021/06/29 13:18:36;;;;;;;11.40;10.33;;;25.50;99.60;;;;;;5076463;28;20409;-72
2021/06/29 13:21:23;;;;;;;11.87;10.73;;;25.50;98.80;;;;;;5086882;28;20229;-72
2021/06/29 13:23:54;;;;;;;10.40;9.50;;;25.40;99.90;;;;;;5067564;28;20398;-71
2021/06/29 13:26:19;;;;;;;9.40;8.50;;;25.30;99.90;;;;;;5064692;28;20475;-71
2021/06/29 13:28:45;;;;;;;13.20;11.93;;;25.20;99.90;;;;;;5050660;28;20402;-71
2021/06/29 13:31:11;;;;;;;11.57;10.10;;;25.20;99.10;;;;;;5078029;28;20160;-71
2021/06/29 13:33:38;;;;;;;9.50;8.60;;;25.10;99.90;;;;;;5067778;28;20262;-71
2021/06/29 13:36:04;;;;;;;10.27;9.17;;;25.00;99.90;;;;;;5069210;28;20159;-72
2021/06/29 13:38:30;;;;;;;9.53;8.73;;;24.90;99.90;;;;;;5070004;28;20832;-71
2021/06/29 13:40:56;;;;;;;9.13;8.40;;;24.90;99.90;;;;;;5063251;28;20418;-71
2021/06/29 13:43:25;;;;;;;10.37;9.47;;;24.90;99.90;;;;;;5065542;28;20194;-71
2021/06/29 13:45:54;;;;;;;9.10;8.23;;;24.90;99.90;;;;;;5048776;28;20206;-72